createdAt,value
2023-05-08T00:00:14.729Z,101479.13
2023-05-08T00:02:43.263Z,101482.34
2023-05-08T00:05:11.077Z,101483.19
2023-05-08T00:07:38.885Z,101481.63
2023-05-08T00:10:10.783Z,101476.41
2023-05-08T00:12:39.257Z,101481.88
2023-05-08T00:15:08.045Z,101475.84
2023-05-08T00:17:37.588Z,101476.94
2023-05-08T00:20:07.123Z,101481.56
2023-05-08T00:22:34.817Z,101479.88
2023-05-08T00:25:03.147Z,101476.47
2023-05-08T00:27:32.403Z,101475.78
2023-05-08T00:30:01.490Z,101486.44
2023-05-08T00:32:30.046Z,101486.59
2023-05-08T00:51:55.405Z,101467.91
2023-05-08T00:54:23.496Z,101466.22
2023-05-08T00:56:54.618Z,101474.22
2023-05-08T00:59:23.202Z,101473.38
2023-05-08T01:01:51.838Z,101470.00
2023-05-08T01:04:22.084Z,101472.78
2023-05-08T01:06:50.331Z,101472.78
2023-05-08T01:09:19.366Z,101472.91
2023-05-08T01:11:53.304Z,101472.22
2023-05-08T01:14:25.959Z,101469.91
2023-05-08T01:16:59.648Z,101476.38
2023-05-08T01:19:54.476Z,101471.97
2023-05-08T01:22:40.252Z,101474.09
2023-05-08T01:25:38.374Z,101470.81
2023-05-08T01:28:55.732Z,101477.13
2023-05-08T01:31:32.405Z,101473.75
2023-05-08T01:34:07.722Z,101470.34
2023-05-08T01:36:42.517Z,101474.25
2023-05-08T01:39:37.456Z,101469.31
2023-05-08T01:42:08.950Z,101473.06
2023-05-08T01:44:44.609Z,101468.59
2023-05-08T01:47:16.389Z,101465.69
2023-05-08T01:49:47.069Z,101463.16
2023-05-08T01:52:18.572Z,101463.41
2023-05-08T01:54:51.182Z,101470.69
2023-05-08T01:57:20.821Z,101470.06
2023-05-08T01:59:50.917Z,101472.84
2023-05-08T02:02:19.961Z,101466.81
2023-05-08T02:04:50.322Z,101474.09
2023-05-08T02:07:18.479Z,101477.97
2023-05-08T02:09:49.326Z,101480.78
2023-05-08T02:12:18.368Z,101483.56
2023-05-08T02:14:49.073Z,101487.19
2023-05-08T02:17:18.556Z,101482.84
2023-05-08T02:19:50.621Z,101479.47
2023-05-08T02:22:22.383Z,101484.06
2023-05-08T02:24:56.192Z,101486.00
2023-05-08T02:27:26.904Z,101480.81
2023-05-08T02:29:56.177Z,101481.16
2023-05-08T02:32:26.606Z,101482.25
2023-05-08T02:35:03.053Z,101480.56
2023-05-08T02:37:36.387Z,101482.38
2023-05-08T02:40:07.350Z,101476.47
2023-05-08T02:42:39.468Z,101484.56
2023-05-08T02:45:12.136Z,101477.69
2023-05-08T02:47:47.118Z,101477.81
2023-05-08T02:50:24.407Z,101474.41
2023-05-08T02:52:55.644Z,101482.41
2023-05-08T02:55:34.801Z,101480.84
2023-05-08T02:58:13.019Z,101480.13
2023-05-08T03:00:46.158Z,101481.19
2023-05-08T03:03:20.454Z,101477.94
2023-05-08T03:05:53.548Z,101487.72
2023-05-08T03:08:26.765Z,101482.66
2023-05-08T03:10:58.859Z,101488.97
2023-05-08T03:14:17.349Z,101488.22
2023-05-08T03:16:48.565Z,101481.34
2023-05-08T03:19:23.385Z,101476.13
2023-05-08T03:21:56.877Z,101482.44
2023-05-08T03:24:26.618Z,101480.84
2023-05-08T03:26:56.376Z,101473.97
2023-05-08T03:29:27.058Z,101473.22
2023-05-08T03:31:56.982Z,101478.66
2023-05-08T03:34:25.431Z,101466.34
2023-05-08T03:36:54.790Z,101472.63
2023-05-08T03:39:26.400Z,101473.69
2023-05-08T03:41:56.768Z,101464.03
2023-05-08T03:44:26.249Z,101467.78
2023-05-08T03:46:57.830Z,101457.22
2023-05-08T03:49:28.379Z,101463.53
2023-05-08T03:52:01.836Z,101459.31
2023-05-08T03:54:30.202Z,101462.09
2023-05-08T03:57:23.163Z,101464.75
2023-05-08T04:00:01.061Z,101465.72
2023-05-08T04:02:35.150Z,101462.34
2023-05-08T04:05:15.536Z,101463.31
2023-05-08T04:07:51.734Z,101468.63
2023-05-08T04:10:25.554Z,101468.75
2023-05-08T04:12:58.686Z,101474.06
2023-05-08T04:15:30.100Z,101479.41
2023-05-08T04:18:04.207Z,101475.91
2023-05-08T04:20:34.409Z,101471.50
2023-05-08T04:23:05.441Z,101471.50
2023-05-08T04:25:37.078Z,101472.34
2023-05-08T04:28:06.379Z,101478.56
2023-05-08T04:30:35.560Z,101479.50
2023-05-08T04:33:05.722Z,101470.66
2023-05-08T04:35:34.916Z,101485.78
2023-05-08T04:38:04.728Z,101486.63
2023-05-08T04:40:33.207Z,101488.47
2023-05-08T04:43:01.829Z,101495.59
2023-05-08T04:45:31.295Z,101498.25
2023-05-08T04:47:59.558Z,101497.41
2023-05-08T04:50:27.480Z,101499.22
2023-05-08T04:52:55.689Z,101496.69
2023-05-08T04:55:25.416Z,101500.34
2023-05-08T04:57:53.495Z,101504.69
2023-05-08T05:00:23.544Z,101508.19
2023-05-08T05:02:51.643Z,101514.22
2023-05-08T05:05:19.577Z,101521.25
2023-05-08T05:07:47.376Z,101520.41
2023-05-08T05:10:18.505Z,101521.16
2023-05-08T05:12:48.650Z,101521.88
2023-05-08T05:15:16.600Z,101528.88
2023-05-08T05:17:44.258Z,101534.06
2023-05-08T05:20:13.603Z,101535.66
2023-05-08T05:22:42.460Z,101532.75
2023-05-08T05:25:10.874Z,101529.03
2023-05-08T05:27:39.045Z,101537.50
2023-05-08T05:30:10.450Z,101534.47
2023-05-08T05:32:39.326Z,101541.38
2023-05-08T05:35:08.713Z,101528.56
2023-05-08T05:37:37.600Z,101523.59
2023-05-08T05:40:06.424Z,101528.44
2023-05-08T05:42:35.718Z,101524.44
2023-05-08T05:45:32.528Z,101524.66
2023-05-08T05:48:01.057Z,101534.69
2023-05-08T05:50:29.402Z,101531.53
2023-05-08T05:52:57.961Z,101529.13
2023-05-08T05:55:28.409Z,101528.63
2023-05-08T05:57:58.856Z,101529.94
2023-05-08T06:00:53.403Z,101532.00
2023-05-08T06:03:21.549Z,101526.06
2023-05-08T06:06:16.404Z,101534.38
2023-05-08T06:08:44.145Z,101531.22
2023-05-08T06:11:12.651Z,101536.09
2023-05-08T06:13:41.393Z,101532.91
2023-05-08T06:16:10.730Z,101532.41
2023-05-08T06:18:38.298Z,101529.31
2023-05-08T06:21:06.009Z,101526.28
2023-05-08T06:23:33.699Z,101530.38
2023-05-08T06:26:01.268Z,101524.69
2023-05-08T06:28:29.507Z,101519.66
2023-05-08T06:30:57.293Z,101529.81
2023-05-08T06:33:27.025Z,101522.97
2023-05-08T06:35:55.061Z,101525.00
2023-05-08T06:41:15.415Z,101536.59
2023-05-08T06:43:45.396Z,101532.22
2023-05-08T06:46:13.078Z,101540.41
2023-05-08T06:48:42.234Z,101528.22
2023-05-08T06:51:09.850Z,101529.53
2023-05-08T06:53:38.407Z,101528.03
2023-05-08T06:56:06.809Z,101528.75
2023-05-08T06:58:36.396Z,101529.06
2023-05-08T07:01:04.097Z,101528.66
2023-05-08T07:03:34.428Z,101524.22
2023-05-08T07:06:04.468Z,101520.59
2023-05-08T07:08:32.800Z,101516.53
2023-05-08T07:11:00.408Z,101520.34
2023-05-08T07:13:28.581Z,101516.47
2023-05-08T07:15:58.452Z,101516.66
2023-05-08T07:18:27.027Z,101517.38
2023-05-08T07:20:54.623Z,101508.22
2023-05-08T07:23:23.755Z,101502.28
2023-05-08T07:25:53.429Z,101503.16
2023-05-08T07:28:21.010Z,101500.03
2023-05-08T07:30:52.403Z,101502.72
2023-05-08T07:33:20.304Z,101511.72
2023-05-08T07:35:47.888Z,101514.59
2023-05-08T07:38:15.448Z,101515.97
2023-05-08T07:40:44.530Z,101524.00
2023-05-08T07:43:13.101Z,101521.75
2023-05-08T07:45:40.899Z,101522.72
2023-05-08T07:48:08.860Z,101533.41
2023-05-08T07:50:37.263Z,101530.72
2023-05-08T07:53:04.931Z,101525.34
2023-05-08T07:55:32.773Z,101532.22
2023-05-08T07:58:04.404Z,101540.34
2023-05-08T08:00:32.070Z,101533.41
2023-05-08T08:03:00.684Z,101530.53
2023-05-08T08:05:28.636Z,101529.28
2023-05-08T08:07:56.231Z,101530.44
2023-05-08T08:10:23.966Z,101530.00
2023-05-08T08:12:52.528Z,101532.22
2023-05-08T08:15:21.870Z,101528.25
2023-05-08T08:17:49.802Z,101530.34
2023-05-08T08:20:18.256Z,101531.97
2023-05-08T08:22:45.864Z,101534.66
2023-05-08T08:25:15.508Z,101526.53
2023-05-08T08:27:44.847Z,101531.84
2023-05-08T08:30:18.282Z,101533.75
2023-05-08T08:32:49.460Z,101527.63
2023-05-08T08:35:18.198Z,101527.84
2023-05-08T08:37:46.067Z,101534.59
2023-05-08T08:40:13.900Z,101534.31
2023-05-08T08:42:43.433Z,101532.16
2023-05-08T08:45:12.137Z,101528.84
2023-05-08T08:47:41.539Z,101539.69
2023-05-08T08:50:14.714Z,101530.38
2023-05-08T08:52:49.206Z,101531.09
2023-05-08T08:55:18.922Z,101532.50
2023-05-08T08:57:55.593Z,101536.66
2023-05-08T09:00:26.725Z,101535.72
2023-05-08T09:02:54.652Z,101534.06
2023-05-08T09:05:26.473Z,101540.88
2023-05-08T09:07:56.415Z,101537.25
2023-05-08T09:10:25.713Z,101545.66
2023-05-08T09:15:49.003Z,101544.41
2023-05-08T09:18:17.426Z,101545.28
2023-05-08T09:20:49.791Z,101539.44
2023-05-08T09:23:18.024Z,101542.16
2023-05-08T09:25:46.517Z,101539.66
2023-05-08T09:28:20.574Z,101539.53
2023-05-08T09:30:56.847Z,101538.09
2023-05-08T09:33:27.520Z,101535.13
2023-05-08T09:35:58.641Z,101533.59
2023-05-08T09:38:35.480Z,101523.97
2023-05-08T09:41:10.941Z,101529.72
2023-05-08T09:43:39.254Z,101531.09
2023-05-08T09:46:22.913Z,101533.94
2023-05-08T09:48:50.912Z,101529.38
2023-05-08T09:51:20.429Z,101530.91
2023-05-08T09:53:48.249Z,101536.06
2023-05-08T09:56:16.007Z,101536.56
2023-05-08T09:58:46.544Z,101539.56
2023-05-08T10:01:29.615Z,101542.09
2023-05-08T10:03:57.289Z,101543.72
2023-05-08T10:06:28.275Z,101540.50
2023-05-08T10:09:12.141Z,101529.84
2023-05-08T10:11:40.745Z,101523.44
2023-05-08T10:14:10.511Z,101530.72
2023-05-08T10:16:42.802Z,101531.25
2023-05-08T10:19:17.505Z,101526.38
2023-05-08T10:21:50.435Z,101532.78
2023-05-08T10:24:21.058Z,101536.13
2023-05-08T10:27:06.178Z,101534.97
2023-05-08T10:29:43.379Z,101531.59
2023-05-08T10:32:11.644Z,101537.47
2023-05-08T10:34:41.494Z,101537.16
2023-05-08T10:37:11.683Z,101535.31
2023-05-08T10:39:41.216Z,101540.22
2023-05-08T10:42:10.433Z,101539.19
2023-05-08T10:44:39.420Z,101536.31
2023-05-08T10:47:14.159Z,101532.66
2023-05-08T10:49:50.479Z,101533.34
2023-05-08T10:52:31.513Z,101532.84
2023-05-08T10:55:17.557Z,101526.28
2023-05-08T10:58:03.738Z,101525.75
2023-05-08T11:01:13.803Z,101517.28
2023-05-08T11:03:44.165Z,101520.97
2023-05-08T11:06:12.793Z,101522.13
2023-05-08T11:08:52.445Z,101517.88
2023-05-08T11:11:27.731Z,101523.47
2023-05-08T11:14:00.765Z,101513.50
2023-05-08T11:17:05.113Z,101514.16
2023-05-08T11:19:33.525Z,101513.34
2023-05-08T11:22:25.835Z,101511.13
2023-05-08T11:24:59.796Z,101506.75
2023-05-08T11:27:38.705Z,101510.22
2023-05-08T11:30:38.565Z,101507.69
2023-05-08T11:33:17.109Z,101504.91
2023-05-08T11:35:51.562Z,101501.91
2023-05-08T11:38:27.509Z,101498.88
2023-05-08T11:41:08.131Z,101502.16
2023-05-08T11:44:17.648Z,101500.78
2023-05-08T11:46:50.735Z,101497.75
2023-05-08T11:49:24.505Z,101500.25
2023-05-08T11:51:55.172Z,101489.25
2023-05-08T11:54:24.450Z,101490.59
2023-05-08T11:56:55.114Z,101494.78
2023-05-08T11:59:22.975Z,101499.00
2023-05-08T12:04:24.562Z,101498.16
2023-05-08T12:06:58.413Z,101500.19
2023-05-08T12:09:27.145Z,101502.44
2023-05-08T12:12:00.431Z,101501.56
2023-05-08T12:14:28.444Z,101495.81
2023-05-08T12:16:56.091Z,101494.06
2023-05-08T12:19:24.468Z,101498.75
2023-05-08T12:21:52.869Z,101494.28
2023-05-08T12:24:23.095Z,101488.34
2023-05-08T12:26:54.128Z,101481.91
2023-05-08T12:29:24.003Z,101488.78
2023-05-08T12:31:54.499Z,101488.13
2023-05-08T12:34:23.477Z,101489.16
2023-05-08T12:37:02.819Z,101484.59
2023-05-08T12:39:37.591Z,101488.78
2023-05-08T12:42:06.460Z,101483.66
2023-05-08T12:44:36.259Z,101482.84
2023-05-08T12:47:06.020Z,101481.06
2023-05-08T12:49:33.986Z,101478.69
2023-05-08T12:52:03.608Z,101473.94
2023-05-08T12:54:37.028Z,101476.91
2023-05-08T12:57:10.904Z,101472.88
2023-05-08T12:59:40.883Z,101465.41
2023-05-08T13:02:14.365Z,101463.72
2023-05-08T13:04:42.146Z,101470.53
2023-05-08T13:07:10.566Z,101473.38
2023-05-08T13:09:39.581Z,101467.97
2023-05-08T13:12:08.491Z,101474.22
2023-05-08T13:14:36.063Z,101470.88
2023-05-08T13:17:05.004Z,101476.66
2023-05-08T13:19:32.543Z,101474.09
2023-05-08T13:22:01.839Z,101469.09
2023-05-08T13:24:29.536Z,101466.91
2023-05-08T13:27:01.444Z,101465.78
2023-05-08T13:29:29.528Z,101464.09
2023-05-08T13:31:57.987Z,101464.66
2023-05-08T13:34:28.477Z,101461.94
2023-05-08T13:36:57.449Z,101465.38
2023-05-08T13:39:25.036Z,101458.09
2023-05-08T13:41:54.512Z,101463.69
2023-05-08T13:44:22.087Z,101469.09
2023-05-08T13:46:50.008Z,101467.59
2023-05-08T13:49:19.144Z,101465.91
2023-05-08T13:51:56.440Z,101467.97
2023-05-08T13:54:26.545Z,101466.28
2023-05-08T13:56:54.145Z,101461.53
2023-05-08T13:59:21.920Z,101451.38
2023-05-08T14:01:50.906Z,101459.31
2023-05-08T14:04:19.100Z,101454.75
2023-05-08T14:06:48.279Z,101452.69
2023-05-08T14:09:15.837Z,101451.31
2023-05-08T14:11:44.076Z,101454.03
2023-05-08T14:14:11.640Z,101446.56
2023-05-08T14:16:40.147Z,101450.94
2023-05-08T14:19:07.816Z,101447.72
2023-05-08T14:21:36.702Z,101450.16
2023-05-08T14:24:06.604Z,101439.25
2023-05-08T14:26:36.551Z,101445.31
2023-05-08T14:29:05.104Z,101439.91
2023-05-08T14:31:32.769Z,101439.34
2023-05-08T14:34:01.153Z,101434.88
2023-05-08T14:36:28.731Z,101430.84
2023-05-08T14:38:57.561Z,101423.72
2023-05-08T14:41:29.961Z,101420.66
2023-05-08T14:43:58.759Z,101420.03
2023-05-08T14:46:26.510Z,101417.97
2023-05-08T14:49:32.763Z,101412.66
2023-05-08T14:52:05.585Z,101412.47
2023-05-08T14:55:01.670Z,101421.97
2023-05-08T14:57:30.833Z,101418.59
2023-05-08T14:59:58.410Z,101411.28
2023-05-08T15:02:27.134Z,101426.19
2023-05-08T15:04:55.600Z,101418.53
2023-05-08T15:07:23.204Z,101409.88
2023-05-08T15:09:53.464Z,101415.38
2023-05-08T15:12:49.168Z,101426.00
2023-05-08T15:15:17.204Z,101424.13
2023-05-08T15:17:44.805Z,101416.75
2023-05-08T15:20:13.573Z,101413.09
2023-05-08T15:22:41.656Z,101419.06
2023-05-08T15:25:10.478Z,101410.13
2023-05-08T15:27:38.094Z,101420.66
2023-05-08T15:30:10.485Z,101415.06
2023-05-08T15:32:40.208Z,101416.00
2023-05-08T15:35:08.534Z,101412.75
2023-05-08T15:37:38.307Z,101416.75
2023-05-08T15:40:07.198Z,101417.22
2023-05-08T15:42:35.480Z,101413.41
2023-05-08T15:45:04.068Z,101414.94
2023-05-08T15:47:33.266Z,101415.09
2023-05-08T15:50:01.076Z,101417.59
2023-05-08T15:52:32.506Z,101406.38
2023-05-08T15:55:00.065Z,101412.31
2023-05-08T15:57:29.849Z,101408.84
2023-05-08T15:59:57.570Z,101411.75
2023-05-08T16:02:25.353Z,101404.47
2023-05-08T16:04:54.521Z,101406.03
2023-05-08T16:07:22.596Z,101407.91
2023-05-08T16:09:50.273Z,101409.28
2023-05-08T16:12:19.753Z,101408.50
2023-05-08T16:14:47.628Z,101409.88
2023-05-08T16:17:15.395Z,101402.34
2023-05-08T16:19:42.961Z,101409.47
2023-05-08T16:22:13.483Z,101415.84
2023-05-08T16:24:41.289Z,101420.94
2023-05-08T16:27:08.863Z,101409.50
2023-05-08T16:29:36.968Z,101417.13
2023-05-08T16:32:04.702Z,101405.66
2023-05-08T16:34:32.351Z,101405.66
2023-05-08T16:36:59.993Z,101409.03
2023-05-08T16:39:29.498Z,101406.34
2023-05-08T16:41:58.067Z,101391.44
2023-05-08T16:44:25.621Z,101390.16
2023-05-08T16:46:53.364Z,101389.28
2023-05-08T16:49:21.042Z,101388.09
2023-05-08T16:51:48.681Z,101386.25
2023-05-08T16:54:17.985Z,101391.25
2023-05-08T16:56:47.506Z,101380.00
2023-05-08T16:59:15.121Z,101376.28
2023-05-08T17:01:42.927Z,101376.81
2023-05-08T17:04:12.475Z,101375.66
2023-05-08T17:06:40.711Z,101385.63
2023-05-08T17:09:08.353Z,101383.94
2023-05-08T17:11:36.143Z,101384.59
2023-05-08T17:14:05.485Z,101380.72
2023-05-08T17:16:33.668Z,101373.66
2023-05-08T17:19:01.492Z,101369.94
2023-05-08T17:21:30.922Z,101376.56
2023-05-08T17:24:00.264Z,101373.84
2023-05-08T17:26:28.577Z,101375.91
2023-05-08T17:28:56.159Z,101367.81
2023-05-08T17:31:25.593Z,101378.75
2023-05-08T17:33:53.474Z,101381.44
2023-05-08T17:36:21.566Z,101383.50
2023-05-08T17:38:50.440Z,101379.13
2023-05-08T17:41:18.049Z,101374.25
2023-05-08T17:43:45.626Z,101373.28
2023-05-08T17:46:14.631Z,101373.47
2023-05-08T17:48:43.603Z,101373.81
2023-05-08T17:51:13.221Z,101370.44
2023-05-08T17:53:41.218Z,101379.38
2023-05-08T17:56:09.414Z,101385.78
2023-05-08T17:58:38.999Z,101376.88
2023-05-08T18:01:07.821Z,101375.72
2023-05-08T18:03:38.025Z,101369.81
2023-05-08T18:06:07.384Z,101374.53
2023-05-08T18:08:35.430Z,101377.75
2023-05-08T18:11:03.134Z,101372.22
2023-05-08T18:13:31.490Z,101379.66
2023-05-08T18:16:01.173Z,101373.72
2023-05-08T18:18:29.695Z,101384.00
2023-05-08T18:20:57.277Z,101378.97
2023-05-08T18:23:26.338Z,101377.63
2023-05-08T18:25:55.490Z,101374.47
2023-05-08T18:28:24.251Z,101371.44
2023-05-08T18:30:51.886Z,101373.81
2023-05-08T18:33:19.495Z,101381.56
2023-05-08T18:35:48.933Z,101377.69
2023-05-08T18:38:17.545Z,101376.19
2023-05-08T18:40:47.421Z,101380.22
2023-05-08T18:43:15.365Z,101380.41
2023-05-08T18:45:46.577Z,101381.94
2023-05-08T18:48:14.203Z,101376.88
2023-05-08T18:50:41.827Z,101377.72
2023-05-08T18:53:09.759Z,101376.53
2023-05-08T18:55:37.673Z,101378.06
2023-05-08T18:58:07.131Z,101372.34
2023-05-08T19:00:35.528Z,101379.22
2023-05-08T19:03:03.261Z,101386.13
2023-05-08T19:05:31.354Z,101384.06
2023-05-08T19:07:59.002Z,101382.03
2023-05-08T19:10:26.885Z,101381.69
2023-05-08T19:12:54.485Z,101392.97
2023-05-08T19:15:24.520Z,101392.63
2023-05-08T19:17:52.760Z,101392.13
2023-05-08T19:20:20.836Z,101391.75
2023-05-08T19:22:48.571Z,101394.09
2023-05-08T19:25:17.567Z,101395.47
2023-05-08T19:27:45.194Z,101387.03
2023-05-08T19:30:13.630Z,101385.66
2023-05-08T19:32:43.110Z,101386.16
2023-05-08T19:35:12.618Z,101383.13
2023-05-08T19:37:41.186Z,101388.81
2023-05-08T19:40:10.970Z,101392.16
2023-05-08T19:42:39.135Z,101393.66
2023-05-08T19:45:08.602Z,101398.50
2023-05-08T19:47:36.374Z,101395.31
2023-05-08T19:50:07.721Z,101399.31
2023-05-08T19:52:35.877Z,101393.44
2023-05-08T19:55:03.466Z,101395.78
2023-05-08T19:57:31.132Z,101393.56
2023-05-08T19:59:58.845Z,101386.63
2023-05-08T20:02:26.708Z,101383.25
2023-05-08T20:05:18.561Z,101387.09
2023-05-08T20:07:44.527Z,101380.38
2023-05-08T20:10:12.582Z,101373.47
2023-05-08T20:12:40.649Z,101377.31
2023-05-08T20:15:09.787Z,101372.94
2023-05-08T20:17:37.506Z,101368.56
2023-05-08T20:20:06.072Z,101365.06
2023-05-08T20:22:33.790Z,101368.75
2023-05-08T20:25:04.668Z,101361.84
2023-05-08T20:27:32.588Z,101359.16
2023-05-08T20:30:01.001Z,101357.63
2023-05-08T20:32:28.791Z,101361.47
2023-05-08T20:34:56.928Z,101366.00
2023-05-08T20:37:25.420Z,101362.63
2023-05-08T20:39:53.167Z,101370.84
2023-05-08T20:42:22.156Z,101363.09
2023-05-08T20:44:49.717Z,101363.44
2023-05-08T20:47:18.022Z,101358.22
2023-05-08T20:49:46.505Z,101358.53
2023-05-08T20:52:14.117Z,101356.84
2023-05-08T20:54:44.318Z,101355.16
2023-05-08T20:57:12.853Z,101349.94
2023-05-08T20:59:41.756Z,101349.28
2023-05-08T21:02:09.515Z,101357.50
2023-05-08T21:04:38.008Z,101352.13
2023-05-08T21:07:06.093Z,101345.22
2023-05-08T21:09:33.835Z,101344.38
2023-05-08T21:12:02.493Z,101338.31
2023-05-08T21:14:31.916Z,101337.63
2023-05-08T21:17:01.693Z,101337.78
2023-05-08T21:19:31.542Z,101337.13
2023-05-08T21:22:00.135Z,101340.81
2023-05-08T21:24:27.786Z,101343.50
2023-05-08T21:26:56.020Z,101336.41
2023-05-08T21:29:23.611Z,101326.69
2023-05-08T21:31:51.245Z,101329.53
2023-05-08T21:34:21.256Z,101322.66
2023-05-08T21:36:49.336Z,101323.50
2023-05-08T21:39:16.931Z,101322.94
2023-05-08T21:41:48.531Z,101324.97
2023-05-08T21:44:16.328Z,101321.56
2023-05-08T21:49:37.031Z,101319.69
2023-05-08T21:52:04.816Z,101314.63
2023-05-08T21:54:32.552Z,101312.41
2023-05-08T21:57:03.552Z,101310.03
2023-05-08T21:59:31.195Z,101313.03
2023-05-08T22:01:58.941Z,101312.34
2023-05-08T22:04:26.540Z,101311.00
2023-05-08T22:06:55.639Z,101306.91
2023-05-08T22:09:23.247Z,101309.78
2023-05-08T22:11:50.924Z,101312.75
2023-05-08T22:14:18.713Z,101310.34
2023-05-08T22:16:47.286Z,101307.13
2023-05-08T22:19:15.086Z,101304.78
2023-05-08T22:21:43.409Z,101305.06
2023-05-08T22:24:14.871Z,101305.41
2023-05-08T22:26:42.688Z,101303.00
2023-05-08T22:29:10.221Z,101306.97
2023-05-08T22:37:22.258Z,101289.44
2023-05-08T22:39:51.192Z,101287.25
2023-05-08T22:42:19.312Z,101287.53
2023-05-08T22:44:46.923Z,101285.19
2023-05-08T22:47:15.407Z,101285.63
2023-05-08T22:49:43.824Z,101281.41
2023-05-08T22:52:11.525Z,101280.56
2023-05-08T22:54:43.015Z,101281.72
2023-05-08T22:57:11.969Z,101278.50
2023-05-08T22:59:40.109Z,101275.81
2023-05-08T23:02:07.999Z,101274.44
2023-05-08T23:04:36.076Z,101276.25
2023-05-08T23:07:04.606Z,101273.06
2023-05-08T23:09:33.160Z,101272.34
2023-05-08T23:12:00.755Z,101269.81
2023-05-08T23:14:29.702Z,101276.34
2023-05-08T23:16:57.376Z,101270.28
2023-05-08T23:19:25.046Z,101273.13
2023-05-08T23:21:52.691Z,101273.13
2023-05-08T23:24:20.550Z,101266.06
2023-05-08T23:26:49.560Z,101265.22
2023-05-08T23:29:17.218Z,101261.72
2023-05-08T23:31:46.195Z,101260.88
2023-05-08T23:34:13.800Z,101255.53
2023-05-08T23:36:41.619Z,101251.16
2023-05-08T23:39:12.936Z,101248.47
2023-05-08T23:41:40.527Z,101247.47
2023-05-08T23:44:08.216Z,101244.81
2023-05-08T23:46:36.098Z,101235.75
2023-05-08T23:49:05.642Z,101232.25
2023-05-08T23:51:34.059Z,101226.19
2023-05-08T23:54:03.184Z,101225.66
2023-05-08T23:56:30.960Z,101228.34
2023-05-08T23:58:58.502Z,101222.97
